Time;durP1;ratioP1;P1;durP2;ratioP2;P2;SDS_P1;SDS_P2;PMS_P1;PMS_P2;Temp;Humidity;BMP_temperature;BMP_pressure;BME280_temperature;BME280_humidity;BME280_pressure;Samples;Min_cycle;Max_cycle;Signal;HPM_P1;HPM_P2
2023/04/17 00:00:04;;;;;;;;;16.20;16.20;;;;;13.72;44.56;98741.09;5045238;28;8870;-78
2023/04/17 00:02:54;;;;;;;;;15.80;14.00;;;;;13.72;44.47;98741.09;5044989;28;9032;-79
2023/04/17 00:05:25;;;;;;;;;14.20;14.20;;;;;13.75;44.41;98729.50;5053043;28;8854;-78
2023/04/17 00:07:54;;;;;;;;;19.40;16.20;;;;;13.75;44.55;98735.69;5090252;28;8970;-79
2023/04/17 00:10:23;;;;;;;;;17.40;14.40;;;;;13.75;44.61;98734.78;5089835;28;8851;-80
2023/04/17 00:12:53;;;;;;;;;15.20;15.20;;;;;13.81;44.61;98729.25;5108650;28;8859;-79
2023/04/17 00:15:22;;;;;;;;;15.60;14.40;;;;;13.75;44.83;98729.50;5108439;28;8851;-78
2023/04/17 00:17:51;;;;;;;;;17.60;17.00;;;;;13.80;44.66;98731.03;5090114;28;8867;-79
2023/04/17 00:20:20;;;;;;;;;26.40;25.00;;;;;13.77;44.73;98730.28;5039761;28;8970;-78
2023/04/17 00:22:49;;;;;;;;;28.40;26.00;;;;;13.73;44.79;98732.22;5089964;28;8859;-80
2023/04/17 00:25:18;;;;;;;;;29.40;27.00;;;;;13.76;44.67;98731.25;5067491;28;8852;-78
2023/04/17 00:27:46;;;;;;;;;32.60;28.60;;;;;13.68;45.10;98731.59;5051962;28;8864;-78
2023/04/17 00:30:17;;;;;;;;;25.60;23.00;;;;;13.67;44.96;98732.50;5052027;28;8906;-79
2023/04/17 00:32:46;;;;;;;;;23.40;22.00;;;;;13.60;45.08;98723.16;5052588;28;8875;-78
2023/04/17 00:35:15;;;;;;;;;25.80;24.40;;;;;13.59;45.32;98718.81;5068823;28;8860;-78
2023/04/17 00:37:44;;;;;;;;;19.00;18.00;;;;;13.58;45.13;98714.47;5035784;28;9014;-79
2023/04/17 00:40:13;;;;;;;;;18.20;17.40;;;;;13.56;45.19;98725.09;5054718;28;8867;-77
2023/04/17 00:42:42;;;;;;;;;18.60;18.60;;;;;13.55;45.34;98723.38;5052746;28;8882;-78
2023/04/17 00:45:11;;;;;;;;;21.40;20.00;;;;;13.55;45.36;98725.19;5052691;28;8851;-79
2023/04/17 00:47:41;;;;;;;;;17.60;16.80;;;;;13.54;45.42;98715.53;5051993;28;8874;-81
2023/04/17 00:50:11;;;;;;;;;20.80;17.20;;;;;13.48;45.34;98714.03;5035157;28;8901;-77
2023/04/17 00:52:39;;;;;;;;;23.00;20.60;;;;;13.40;45.50;98716.19;5028113;28;8868;-77
2023/04/17 00:55:09;;;;;;;;;19.00;19.00;;;;;13.37;45.50;98711.03;4995283;28;8845;-78
2023/04/17 00:57:38;;;;;;;;;19.80;18.80;;;;;13.31;45.72;98710.38;5001102;28;8845;-78
2023/04/17 01:00:09;;;;;;;;;20.00;18.80;;;;;13.33;46.03;98717.38;5034880;28;8886;-78
2023/04/17 01:02:38;;;;;;;;;17.40;15.20;;;;;13.30;46.07;98707.84;5067792;28;8891;-78
2023/04/17 01:05:09;;;;;;;;;17.20;17.00;;;;;13.36;45.99;98712.81;5051199;28;8860;-78
2023/04/17 01:07:40;;;;;;;;;21.60;20.00;;;;;13.33;46.25;98710.31;5034311;28;8863;-77
2023/04/17 01:10:10;;;;;;;;;16.20;15.80;;;;;13.30;46.07;98715.75;5067675;28;8941;-79
2023/04/17 01:12:39;;;;;;;;;21.00;18.00;;;;;13.28;46.23;98718.44;5050953;28;8879;-78
2023/04/17 01:15:09;;;;;;;;;19.20;18.00;;;;;13.26;46.45;98725.59;5042031;28;8853;-78
2023/04/17 01:17:38;;;;;;;;;19.60;19.40;;;;;13.13;46.97;98721.78;5087846;28;8854;-77
2023/04/17 01:20:09;;;;;;;;;22.60;20.40;;;;;13.25;46.37;98720.38;5087971;28;8826;-79
2023/04/17 01:22:38;;;;;;;;;20.00;18.80;;;;;13.17;46.38;98722.50;5022025;28;8865;-77
2023/04/17 01:25:09;;;;;;;;;20.20;18.40;;;;;13.19;46.73;98726.78;5041935;28;8905;-79
2023/04/17 01:27:40;;;;;;;;;22.80;17.80;;;;;13.07;46.65;98725.56;5092799;28;8985;-78
2023/04/17 01:30:11;;;;;;;;;23.20;19.40;;;;;13.06;46.77;98726.47;5073814;28;8871;-78
2023/04/17 01:32:46;;;;;;;;;19.60;16.60;;;;;12.83;47.61;98722.16;5072495;28;8850;-78
2023/04/17 01:35:15;;;;;;;;;23.80;20.20;;;;;12.81;47.21;98721.38;5055743;28;8841;-79
2023/04/17 01:37:44;;;;;;;;;18.20;18.20;;;;;12.78;47.43;98720.66;5090078;28;8934;-78
2023/04/17 01:40:15;;;;;;;;;22.20;21.80;;;;;12.87;47.35;98722.94;5090441;28;8852;-78
2023/04/17 01:42:44;;;;;;;;;27.20;26.00;;;;;12.82;47.40;98722.22;5022084;28;9005;-78
2023/04/17 01:45:13;;;;;;;;;32.20;30.20;;;;;12.75;47.79;98724.28;5055504;28;8857;-79
2023/04/17 01:47:41;;;;;;;;;33.60;27.60;;;;;12.77;47.77;98726.84;5055374;28;8865;-77
2023/04/17 01:50:12;;;;;;;;;38.00;34.50;;;;;12.78;48.02;98731.22;5071894;28;8846;-78
2023/04/17 01:52:40;;;;;;;;;35.80;31.20;;;;;12.75;48.11;98734.84;5046989;28;8913;-79
2023/04/17 01:55:10;;;;;;;;;34.50;33.75;;;;;12.77;47.88;98732.13;5046866;28;8870;-78
2023/04/17 01:57:41;;;;;;;;;33.00;31.60;;;;;12.81;47.69;98729.28;5030110;28;8870;-78
2023/04/17 02:00:11;;;;;;;;;37.25;34.75;;;;;12.54;48.60;98726.03;5046774;28;8901;-78
2023/04/17 02:02:40;;;;;;;;;35.60;32.80;;;;;12.54;48.73;98732.19;5046708;28;8953;-79
2023/04/17 02:05:09;;;;;;;;;40.60;34.00;;;;;12.50;49.04;98738.53;5046664;28;8862;-78
2023/04/17 02:07:38;;;;;;;;;34.00;34.00;;;;;12.30;50.07;98736.69;5046359;28;8862;-76
2023/04/17 02:10:08;;;;;;;;;34.00;30.60;;;;;12.38;49.39;98731.09;4997489;28;9138;-78
2023/04/17 02:12:37;;;;;;;;;30.80;29.60;;;;;12.41;49.72;98733.63;5046571;28;8869;-78
2023/04/17 02:15:09;;;;;;;;;33.40;32.20;;;;;12.57;49.66;98732.97;5047535;28;8858;-78
2023/04/17 02:17:38;;;;;;;;;32.60;29.00;;;;;12.52;50.02;98736.69;5046875;28;8854;-79
2023/04/17 02:20:08;;;;;;;;;28.80;27.40;;;;;12.63;49.69;98736.19;5030629;28;8850;-77
2023/04/17 02:22:36;;;;;;;;;11.80;10.80;;;;;12.65;49.52;98742.25;5047210;28;8866;-77
2023/04/17 02:25:06;;;;;;;;;29.00;28.80;;;;;12.67;49.90;98736.94;5088913;28;8989;-77
2023/04/17 02:27:35;;;;;;;;;31.80;30.40;;;;;12.64;50.38;98743.19;5101227;28;8830;-79
2023/04/17 02:30:05;;;;;;;;;32.20;29.00;;;;;12.67;50.38;98737.78;5093954;28;8968;-77
2023/04/17 02:32:36;;;;;;;;;32.80;30.00;;;;;12.74;50.64;98738.38;5072536;28;8881;-78
2023/04/17 02:35:07;;;;;;;;;28.60;27.40;;;;;12.61;51.34;98735.41;5055918;28;8861;-78
2023/04/17 02:37:36;;;;;;;;;33.80;33.00;;;;;12.62;51.32;98741.56;5013616;28;8865;-79
2023/04/17 02:40:07;;;;;;;;;29.75;28.75;;;;;12.55;51.63;98743.59;5071254;28;8911;-78
2023/04/17 02:42:35;;;;;;;;;35.25;31.00;;;;;12.56;51.35;98742.69;5053740;28;8834;-78
2023/04/17 02:45:05;;;;;;;;;35.60;32.00;;;;;12.65;51.29;98738.78;5071081;28;8862;-78
2023/04/17 02:47:35;;;;;;;;;34.20;32.80;;;;;12.74;51.89;98735.75;5004292;28;8857;-78
2023/04/17 02:50:06;;;;;;;;;29.00;26.80;;;;;12.71;52.10;98725.31;5029895;28;8830;-78
2023/04/17 02:52:42;;;;;;;;;29.60;28.60;;;;;12.64;52.33;98730.03;5054277;28;8894;-78
2023/04/17 02:55:11;;;;;;;;;30.00;29.20;;;;;12.66;52.54;98737.88;5071342;28;9655;-77
2023/04/17 02:57:42;;;;;;;;;35.50;29.75;;;;;12.67;52.42;98732.50;5070852;28;8978;-80
2023/04/17 03:00:13;;;;;;;;;34.75;31.25;;;;;12.68;52.52;98731.59;5070596;28;8846;-78
2023/04/17 03:02:43;;;;;;;;;34.00;33.75;;;;;12.61;53.11;98731.94;5054961;28;8854;-78
2023/04/17 03:05:13;;;;;;;;;32.50;29.00;;;;;12.56;53.47;98729.50;5090756;28;8844;-78
2023/04/17 03:07:42;;;;;;;;;36.00;33.50;;;;;12.52;53.78;98733.16;5074135;28;8856;-77
2023/04/17 03:10:12;;;;;;;;;34.00;32.25;;;;;12.43;53.77;98736.19;5039527;28;8855;-78
2023/04/17 03:12:40;;;;;;;;;15.50;13.00;;;;;12.39;54.50;98735.47;5065920;28;10170;-79
2023/04/17 03:15:10;;;;;;;;;35.00;35.00;;;;;12.45;53.88;98735.22;5065737;28;8948;-79
2023/04/17 03:17:39;;;;;;;;;34.25;30.50;;;;;12.40;54.14;98736.31;5033284;28;8863;-78
2023/04/17 03:20:10;;;;;;;;;34.00;32.00;;;;;12.49;53.92;98743.84;5000148;28;8864;-78
2023/04/17 03:22:39;;;;;;;;;39.50;35.25;;;;;12.38;53.82;98740.81;5032547;28;8859;-78
2023/04/17 03:25:09;;;;;;;;;87.33;71.67;;;;;12.44;54.11;98744.03;5032404;28;8871;-78
2023/04/17 03:27:48;;;;;;;;;60.25;49.75;;;;;12.42;54.00;98737.97;5031982;28;9281;-80
2023/04/17 03:30:19;;;;;;;;;40.25;36.50;;;;;12.46;53.92;98742.19;5048614;28;8867;-78
2023/04/17 03:32:50;;;;;;;;;35.25;34.00;;;;;12.38;54.41;98740.81;5016182;28;8982;-78
2023/04/17 03:35:21;;;;;;;;;37.75;35.25;;;;;12.49;53.85;98744.69;5065871;28;8847;-78
2023/04/17 03:37:50;;;;;;;;;33.00;30.50;;;;;12.41;54.19;98745.94;5048815;28;8890;-78
2023/04/17 03:40:19;;;;;;;;;37.50;33.50;;;;;12.42;54.35;98748.50;5048755;28;8870;-78
2023/04/17 03:42:48;;;;;;;;;43.25;36.75;;;;;12.50;53.93;98748.19;5050344;28;8937;-78
2023/04/17 03:45:17;;;;;;;;;34.00;31.00;;;;;12.51;53.79;98748.13;5055922;28;8927;-76
2023/04/17 03:47:47;;;;;;;;;37.50;35.00;;;;;12.53;53.67;98743.66;5090272;28;8859;-77
2023/04/17 03:50:16;;;;;;;;;36.25;33.75;;;;;12.41;54.00;98751.19;5089929;28;8843;-77
2023/04/17 03:52:53;;;;;;;;;34.50;32.50;;;;;12.44;54.53;98749.28;5090332;28;8982;-78
2023/04/17 03:55:22;;;;;;;;;93.00;82.75;;;;;12.32;54.83;98745.41;5056028;28;8852;-78
2023/04/17 03:57:52;;;;;;;;;51.75;42.50;;;;;12.36;54.76;98746.13;5073668;28;10044;-76
2023/04/17 04:00:21;;;;;;;;;39.75;36.50;;;;;12.31;55.07;98750.72;5076396;28;8852;-79
2023/04/17 04:02:55;;;;;;;;;36.50;35.00;;;;;12.15;55.63;98753.97;5094081;28;8954;-78
2023/04/17 04:05:33;;;;;;;;;43.50;37.00;;;;;12.23;55.53;98751.03;5077053;28;8913;-78
2023/04/17 04:08:03;;;;;;;;;54.75;44.00;;;;;12.13;56.44;98750.56;5112340;28;8855;-78
2023/04/17 04:10:53;;;;;;;;;55.00;45.00;;;;;12.28;55.16;98753.50;5094270;28;8839;-79
2023/04/17 04:13:28;;;;;;;;;43.75;39.00;;;;;12.04;56.56;98750.06;5103108;28;8867;-79
2023/04/17 04:16:00;;;;;;;;;42.75;39.50;;;;;12.17;55.71;98753.06;5051366;28;8838;-78
2023/04/17 04:18:32;;;;;;;;;49.00;40.50;;;;;12.20;56.02;98756.44;5075264;28;8860;-77
2023/04/17 04:21:01;;;;;;;;;53.75;43.25;;;;;12.26;55.73;98764.09;5057315;28;8873;-78
2023/04/17 04:23:37;;;;;;;;;47.00;41.50;;;;;12.39;55.77;98759.19;5055522;28;8854;-78
2023/04/17 04:26:06;;;;;;;;;48.25;39.25;;;;;12.32;56.12;98758.56;5073469;28;8841;-78
2023/04/17 04:28:43;;;;;;;;;58.75;48.25;;;;;12.15;56.38;98769.78;5072994;28;8873;-79
2023/04/17 04:31:21;;;;;;;;;94.25;81.00;;;;;12.27;56.18;98763.16;5073308;28;8842;-79
2023/04/17 04:33:53;;;;;;;;;70.75;55.25;;;;;12.35;55.79;98768.13;5073042;28;9724;-78
2023/04/17 04:36:23;;;;;;;;;62.00;51.25;;;;;12.29;55.99;98771.88;5089987;28;8888;-77
2023/04/17 04:39:06;;;;;;;;;55.50;44.50;;;;;12.38;56.35;98765.38;5072771;28;8854;-78
2023/04/17 04:41:37;;;;;;;;;48.25;42.00;;;;;12.32;56.32;98782.28;5031121;28;8850;-78
2023/04/17 04:44:09;;;;;;;;;46.00;40.25;;;;;12.36;56.07;98771.63;5022674;28;8976;-78
2023/04/17 04:46:40;;;;;;;;;50.75;42.25;;;;;12.33;56.04;98778.75;5047802;28;8884;-79
2023/04/17 04:49:09;;;;;;;;;50.50;43.25;;;;;12.40;55.94;98770.59;4992049;28;8881;-78
2023/04/17 04:51:39;;;;;;;;;40.00;37.25;;;;;12.39;55.80;98774.13;4991871;28;8866;-78
2023/04/17 04:54:11;;;;;;;;;51.25;42.00;;;;;12.50;55.94;98783.34;5008308;28;8870;-79
2023/04/17 04:56:47;;;;;;;;;57.50;46.00;;;;;11.99;57.69;98787.09;5007985;28;8900;-79
2023/04/17 04:59:16;;;;;;;;;51.25;42.75;;;;;11.64;58.63;98794.56;4991709;28;8896;-78
2023/04/17 05:01:52;;;;;;;;;64.25;49.25;;;;;11.40;60.06;98806.00;5008453;28;8850;-79
2023/04/17 05:04:23;;;;;;;;;53.75;44.00;;;;;11.59;59.32;98801.75;4992510;28;9300;-77
2023/04/17 05:06:56;;;;;;;;;52.25;44.00;;;;;11.72;59.13;98800.38;4976860;28;8858;-79
2023/04/17 05:09:27;;;;;;;;;43.25;38.25;;;;;11.90;58.72;98801.50;4975078;28;9013;-77
2023/04/17 05:11:59;;;;;;;;;45.50;39.25;;;;;11.99;58.14;98802.91;5013210;28;8829;-78
2023/04/17 05:14:28;;;;;;;;;55.25;44.00;;;;;12.18;57.92;98796.94;5050976;28;8916;-80
2023/04/17 05:16:58;;;;;;;;;50.75;43.50;;;;;12.26;57.30;98806.25;5027586;28;8874;-79
2023/04/17 05:19:29;;;;;;;;;54.00;42.50;;;;;12.40;56.89;98803.06;5011156;28;8892;-78
2023/04/17 05:22:02;;;;;;;;;58.75;47.50;;;;;12.46;56.85;98805.44;5028217;28;8973;-77
2023/04/17 05:24:36;;;;;;;;;53.50;46.25;;;;;12.59;56.70;98803.16;5014604;28;8842;-79
2023/04/17 05:27:05;;;;;;;;;52.00;43.50;;;;;12.54;56.37;98811.28;5014690;28;8932;-78
2023/04/17 05:29:34;;;;;;;;;48.00;39.50;;;;;12.54;56.68;98813.03;4998175;28;8838;-78
2023/04/17 05:32:03;;;;;;;;;47.75;39.00;;;;;12.58;57.06;98813.78;5031387;28;8846;-79
2023/04/17 05:34:46;;;;;;;;;48.50;41.00;;;;;12.57;56.46;98815.56;5016637;28;8924;-80
2023/04/17 05:37:17;;;;;;;;;43.75;39.50;;;;;12.57;56.63;98820.84;4991936;28;8842;-76
2023/04/17 05:39:47;;;;;;;;;49.00;41.25;;;;;12.70;57.29;98819.41;5009698;28;8901;-80
2023/04/17 05:42:17;;;;;;;;;51.00;42.25;;;;;12.72;56.69;98812.28;4929350;28;8850;-78
2023/04/17 05:44:45;;;;;;;;;54.50;44.75;;;;;12.81;56.69;98815.47;5008592;28;9009;-79
2023/04/17 05:47:14;;;;;;;;;52.25;41.75;;;;;12.89;56.71;98810.75;4996422;28;8851;-79
2023/04/17 05:49:43;;;;;;;;;55.00;43.50;;;;;12.96;56.98;98814.88;5047446;28;9643;-79
2023/04/17 05:52:13;;;;;;;;;50.25;43.25;;;;;13.09;56.27;98812.53;5047465;28;8865;-77
2023/04/17 05:54:44;;;;;;;;;59.50;46.00;;;;;13.14;56.18;98815.84;5047383;28;8838;-79
2023/04/17 05:57:15;;;;;;;;;52.25;42.00;;;;;13.14;55.83;98813.19;5014341;28;8835;-78
2023/04/17 05:59:44;;;;;;;;;52.75;42.75;;;;;13.05;56.11;98814.47;5062526;28;8916;-76
2023/04/17 06:02:13;;;;;;;;;44.00;36.25;;;;;12.58;57.30;98811.13;5051604;28;8858;-80
2023/04/17 06:04:42;;;;;;;;;54.00;43.25;;;;;12.65;56.88;98818.72;5015935;28;8862;-77
2023/04/17 06:07:12;;;;;;;;;47.25;40.25;;;;;12.75;56.90;98816.59;4998894;28;8875;-80
2023/04/17 06:09:42;;;;;;;;;44.75;40.00;;;;;12.85;57.14;98817.09;5013718;28;8874;-78
2023/04/17 06:12:14;;;;;;;;;50.00;42.00;;;;;12.98;56.16;98830.63;5033936;28;8932;-78
2023/04/17 06:14:46;;;;;;;;;44.25;38.25;;;;;13.21;56.06;98827.00;5055571;28;8880;-77
2023/04/17 06:17:25;;;;;;;;;47.25;39.75;;;;;13.34;55.89;98830.81;5068091;28;8826;-77
2023/04/17 06:19:55;;;;;;;;;47.00;38.25;;;;;13.51;55.58;98824.78;5051373;28;8881;-78
2023/04/17 06:22:24;;;;;;;;;47.75;40.50;;;;;13.65;54.83;98825.00;5033665;28;8947;-79
2023/04/17 06:24:55;;;;;;;;;41.25;36.75;;;;;13.78;54.39;98830.59;5067831;28;8846;-78
2023/04/17 06:27:24;;;;;;;;;45.00;39.50;;;;;13.87;54.24;98830.22;5051205;28;8838;-82
2023/04/17 06:29:56;;;;;;;;;52.50;43.00;;;;;14.08;54.31;98830.16;5030269;28;9003;-78
2023/04/17 06:32:25;;;;;;;;;48.75;40.50;;;;;13.82;53.71;98832.19;5030284;28;9632;-80
2023/04/17 06:34:54;;;;;;;;;52.75;41.00;;;;;13.90;53.56;98826.56;5013438;28;8870;-78
2023/04/17 06:37:42;;;;;;;;;52.25;39.50;;;;;13.89;53.88;98830.16;4990191;28;8882;-78
2023/04/17 06:40:12;;;;;;;;;50.50;40.50;;;;;13.91;53.89;98830.94;4990313;28;8892;-81
2023/04/17 06:42:42;;;;;;;;;47.25;41.50;;;;;13.97;53.94;98833.28;4990245;28;8876;-79
2023/04/17 06:45:19;;;;;;;;;47.00;39.75;;;;;14.16;54.38;98832.44;4945101;28;8855;-79
2023/04/17 06:47:48;;;;;;;;;41.00;34.25;;;;;14.25;53.59;98843.41;4974532;28;8889;-79
2023/04/17 06:50:18;;;;;;;;;48.25;39.25;;;;;14.36;53.27;98832.34;4958434;28;8874;-78
2023/04/17 06:52:47;;;;;;;;;45.25;38.50;;;;;14.55;53.16;98836.75;4990268;28;8870;-77
2023/04/17 06:55:17;;;;;;;;;8.50;5.50;;;;;14.72;52.57;98833.28;5006933;28;9674;-80
2023/04/17 06:57:47;;;;;;;;;44.00;37.75;;;;;14.72;52.47;98834.16;4958821;28;8867;-81
2023/04/17 07:00:17;;;;;;;;;42.25;37.75;;;;;14.92;52.06;98829.66;4990818;28;8866;-79
2023/04/17 07:02:47;;;;;;;;;37.00;35.00;;;;;15.00;51.72;98833.63;5006731;28;8842;-79
2023/04/17 07:05:16;;;;;;;;;41.00;36.75;;;;;15.04;52.00;98827.25;4990021;28;8961;-79
2023/04/17 07:07:45;;;;;;;;;37.75;33.75;;;;;15.15;51.47;98834.66;4953933;28;8933;-81
2023/04/17 07:10:18;;;;;;;;;35.40;30.40;;;;;15.33;51.24;98838.13;5070728;28;8830;-79
2023/04/17 07:12:47;;;;;;;;;39.75;35.00;;;;;15.50;50.88;98837.25;5088779;28;8839;-80
2023/04/17 07:15:16;;;;;;;;;22.80;22.80;;;;;15.45;50.13;98839.28;5109508;28;9637;-80
2023/04/17 07:17:45;;;;;;;;;20.60;20.20;;;;;15.52;50.03;98843.31;5091215;28;8863;-79
2023/04/17 07:20:15;;;;;;;;;24.20;22.80;;;;;15.61;49.35;98834.06;5075193;28;8856;-81
2023/04/17 07:22:44;;;;;;;;;24.40;23.20;;;;;15.06;50.34;98843.06;5033714;28;9625;-78
2023/04/17 07:25:14;;;;;;;;;22.40;20.20;;;;;15.11;49.70;98848.09;5033715;28;8950;-80
2023/04/17 07:27:44;;;;;;;;;26.00;20.40;;;;;15.18;49.66;98845.06;5001105;28;8889;-79
2023/04/17 07:30:14;;;;;;;;;24.80;24.00;;;;;15.03;50.01;98851.16;5050902;28;8836;-82
2023/04/17 07:32:43;;;;;;;;;25.60;24.40;;;;;15.11;49.77;98843.66;5034016;28;8860;-81
2023/04/17 07:35:12;;;;;;;;;23.60;22.20;;;;;14.95;50.35;98853.31;5037979;28;8884;-79
2023/04/17 07:37:42;;;;;;;;;20.40;19.80;;;;;15.24;49.96;98854.47;5054179;28;10010;-81
2023/04/17 07:40:12;;;;;;;;;26.20;24.40;;;;;15.10;49.81;98849.91;5037506;28;8936;-80
2023/04/17 07:42:41;;;;;;;;;21.80;21.60;;;;;14.99;49.62;98853.09;5055477;28;8940;-81
2023/04/17 07:45:11;;;;;;;;;24.40;22.40;;;;;15.08;49.33;98857.06;5081994;28;9053;-79
2023/04/17 07:47:40;;;;;;;;;20.80;18.00;;;;;15.17;48.78;98859.25;5034121;28;9012;-81
2023/04/17 07:50:10;;;;;;;;;25.00;23.80;;;;;15.37;48.75;98860.84;5093498;28;8885;-79
2023/04/17 07:52:40;;;;;;;;;18.20;18.00;;;;;15.20;48.39;98855.59;5106713;28;8859;-81
2023/04/17 07:55:10;;;;;;;;;23.20;22.20;;;;;15.18;49.10;98857.44;5113449;28;8858;-79
2023/04/17 07:57:41;;;;;;;;;20.60;20.60;;;;;15.21;48.58;98867.91;5078340;28;8835;-80
2023/04/17 08:00:12;;;;;;;;;22.00;21.40;;;;;15.35;48.05;98868.03;5094470;28;8850;-80
2023/04/17 08:02:43;;;;;;;;;17.80;14.00;;;;;15.38;47.92;98862.59;5092940;28;8846;-80
2023/04/17 08:05:12;;;;;;;;;24.00;22.00;;;;;15.56;47.66;98865.19;5092234;28;8879;-82
2023/04/17 08:07:42;;;;;;;;;23.60;22.00;;;;;15.40;48.02;98870.44;5073943;28;8850;-81
2023/04/17 08:10:12;;;;;;;;;25.40;24.60;;;;;15.69;47.57;98865.44;5091936;28;8949;-79
2023/04/17 08:12:41;;;;;;;;;22.00;21.40;;;;;15.93;47.04;98873.91;5070674;28;8841;-82
2023/04/17 08:15:11;;;;;;;;;18.60;18.60;;;;;15.50;46.97;98869.03;5057265;28;8942;-80
2023/04/17 08:17:40;;;;;;;;;19.00;17.80;;;;;15.33;47.49;98874.34;5057192;28;8850;-80
2023/04/17 08:20:13;;;;;;;;;19.40;17.60;;;;;15.72;46.44;98867.91;5048784;28;8858;-78
2023/04/17 08:22:43;;;;;;;;;17.00;17.00;;;;;15.70;46.74;98859.19;5032375;28;9098;-80
2023/04/17 08:25:14;;;;;;;;;14.00;13.40;;;;;15.78;46.52;98868.47;5031849;28;8908;-80
2023/04/17 08:27:44;;;;;;;;;19.00;15.60;;;;;15.98;46.16;98872.72;5038020;28;9703;-79
2023/04/17 08:30:14;;;;;;;;;14.60;14.20;;;;;16.05;45.88;98865.25;5035115;28;8960;-80
2023/04/17 08:32:49;;;;;;;;;17.40;15.60;;;;;16.22;45.72;98864.34;5052053;28;8876;-81
2023/04/17 08:35:19;;;;;;;;;20.40;17.60;;;;;16.14;45.81;98864.75;5051894;28;8863;-78
2023/04/17 08:37:48;;;;;;;;;17.60;17.60;;;;;16.28;45.64;98865.78;5052321;28;8859;-80
2023/04/17 08:40:22;;;;;;;;;15.60;13.80;;;;;16.22;45.80;98865.19;5035304;28;8864;-79
2023/04/17 08:42:53;;;;;;;;;18.20;17.60;;;;;16.06;46.52;98863.47;5068427;28;9018;-79
2023/04/17 08:45:23;;;;;;;;;16.20;16.00;;;;;15.96;46.78;98871.06;5050905;28;9596;-79
2023/04/17 08:47:52;;;;;;;;;16.40;15.40;;;;;15.99;46.59;98862.94;5051780;28;8890;-80
2023/04/17 08:50:22;;;;;;;;;18.80;16.20;;;;;15.64;47.48;98868.31;5032665;28;8892;-79
2023/04/17 08:52:52;;;;;;;;;22.00;21.80;;;;;15.91;47.11;98868.66;5048644;28;8997;-81
2023/04/17 08:55:24;;;;;;;;;20.20;19.80;;;;;15.95;46.77;98875.50;5014663;28;9716;-81
2023/04/17 08:57:54;;;;;;;;;17.60;15.60;;;;;16.08;46.28;98869.53;5052520;28;8877;-79
2023/04/17 09:00:31;;;;;;;;;19.60;18.60;;;;;16.13;45.48;98868.34;5047799;28;8866;-82
2023/04/17 09:03:02;;;;;;;;;20.60;19.40;;;;;16.31;45.43;98871.78;5047970;28;8943;-81
2023/04/17 09:05:33;;;;;;;;;18.80;16.40;;;;;16.37;45.04;98862.63;5038316;28;8854;-81
2023/04/17 09:08:11;;;;;;;;;15.60;14.20;;;;;16.49;44.75;98858.47;5033999;28;8904;-79
2023/04/17 09:10:42;;;;;;;;;12.00;11.40;;;;;16.25;45.13;98865.94;4999271;28;8967;-82
2023/04/17 09:13:14;;;;;;;;;12.80;11.60;;;;;16.10;45.10;98870.31;5015662;28;8854;-80
2023/04/17 09:15:46;;;;;;;;;11.80;10.40;;;;;16.12;45.53;98876.41;5031780;28;8912;-81
2023/04/17 09:18:29;;;;;;;;;13.40;12.00;;;;;16.12;45.14;98865.78;5048199;28;9663;-81
2023/04/17 09:21:00;;;;;;;;;13.80;12.40;;;;;16.02;45.50;98868.94;5015459;28;8858;-77
2023/04/17 09:23:31;;;;;;;;;13.40;13.40;;;;;16.20;44.94;98871.53;5006995;28;8843;-80
2023/04/17 09:26:09;;;;;;;;;14.00;14.00;;;;;16.10;45.72;98872.97;4992479;28;9652;-79
2023/04/17 09:28:39;;;;;;;;;11.40;11.40;;;;;15.90;46.83;98877.53;5008920;28;9051;-80
2023/04/17 09:31:26;;;;;;;;;9.80;9.80;;;;;15.88;46.69;98883.88;5015706;28;8866;-81
2023/04/17 09:33:57;;;;;;;;;12.40;12.40;;;;;15.77;47.52;98879.13;5034392;28;8896;-83
2023/04/17 09:36:27;;;;;;;;;8.20;8.20;;;;;15.75;46.63;98881.88;5032405;28;8858;-80
2023/04/17 09:38:58;;;;;;;;;8.40;8.20;;;;;15.81;47.20;98891.28;5031307;28;8866;-80
2023/04/17 09:41:30;;;;;;;;;8.40;8.20;;;;;15.69;47.57;98879.53;5028133;28;8923;-80
2023/04/17 09:44:04;;;;;;;;;8.80;7.60;;;;;15.38;47.77;98880.28;5027838;28;8832;-81
2023/04/17 09:46:36;;;;;;;;;7.40;7.40;;;;;15.43;48.45;98891.47;5028850;28;8877;-81
2023/04/17 09:49:10;;;;;;;;;10.40;10.00;;;;;15.32;49.04;98888.50;5009646;28;8941;-79
2023/04/17 09:51:40;;;;;;;;;12.20;11.00;;;;;14.95;50.36;98888.59;4972204;28;8947;-79
2023/04/17 09:54:10;;;;;;;;;8.40;8.40;;;;;14.82;51.48;98877.72;4977098;28;8845;-80
2023/04/17 09:56:41;;;;;;;;;11.00;10.00;;;;;14.77;52.10;98893.00;4957306;28;8849;-80
2023/04/17 09:59:10;;;;;;;;;15.40;13.40;;;;;14.72;52.93;98889.72;4956944;28;8868;-80
2023/04/17 10:01:39;;;;;;;;;12.40;12.40;;;;;14.73;52.98;98882.63;4957098;28;9468;-80
2023/04/17 10:04:09;;;;;;;;;11.40;11.40;;;;;14.81;52.96;98888.38;4969941;28;8894;-81
2023/04/17 10:06:38;;;;;;;;;12.00;11.40;;;;;14.94;52.94;98889.50;4937802;28;8850;-78
2023/04/17 10:09:08;;;;;;;;;15.40;14.60;;;;;14.75;53.21;98878.97;4938346;28;8878;-80
2023/04/17 10:11:39;;;;;;;;;13.40;13.40;;;;;14.75;52.90;98884.25;4937396;28;8994;-82
2023/04/17 10:14:15;;;;;;;;;18.20;18.20;;;;;14.79;53.15;98892.91;4953095;28;8866;-81
2023/04/17 10:16:46;;;;;;;;;15.60;14.00;;;;;14.74;53.49;98882.56;4927649;29;9703;-85
2023/04/17 10:19:29;;;;;;;;;16.60;13.80;;;;;14.74;53.55;98879.91;4911506;29;8901;-80
2023/04/17 10:22:39;;;;;;;;;14.80;13.40;;;;;14.86;53.12;98887.22;4900454;28;8906;-78
2023/04/17 10:25:23;;;;;;;;;15.40;14.20;;;;;14.71;54.06;98879.16;4914511;29;8872;-79
2023/04/17 10:27:57;;;;;;;;;17.00;17.00;;;;;14.51;54.43;98885.41;4965856;28;8874;-80
2023/04/17 10:30:53;;;;;;;;;17.80;17.20;;;;;14.75;54.69;98880.75;4952815;28;8871;-79
2023/04/17 10:33:26;;;;;;;;;22.40;20.20;;;;;14.55;55.43;98889.66;4968770;28;9596;-83
2023/04/17 10:35:56;;;;;;;;;18.20;16.80;;;;;14.60;55.06;98879.69;4922272;28;8859;-81
2023/04/17 10:38:33;;;;;;;;;18.60;18.40;;;;;14.91;54.51;98889.66;4917778;28;8925;-79
2023/04/17 10:41:04;;;;;;;;;18.00;17.60;;;;;14.90;54.62;98885.28;4965688;28;8981;-81
2023/04/17 10:43:33;;;;;;;;;16.60;13.80;;;;;15.00;54.43;98894.50;4933554;28;8942;-80
2023/04/17 10:46:08;;;;;;;;;18.80;18.80;;;;;15.00;54.62;98896.28;4949499;28;8862;-83
2023/04/17 10:48:48;;;;;;;;;15.80;15.80;;;;;15.06;54.74;98886.25;4966124;28;8869;-79
2023/04/17 10:51:40;;;;;;;;;12.80;11.80;;;;;15.15;54.17;98894.66;4936669;28;8898;-81
2023/04/17 10:54:12;;;;;;;;;10.00;9.60;;;;;14.90;54.25;98895.03;4952183;28;9019;-80
2023/04/17 10:56:45;;;;;;;;;7.00;7.00;;;;;14.76;54.27;98890.44;5011745;28;8894;-81
2023/04/17 10:59:15;;;;;;;;;9.40;7.20;;;;;14.72;54.31;98884.41;5084441;28;8858;-80
2023/04/17 11:02:02;;;;;;;;;7.60;7.60;;;;;14.70;54.39;98888.03;5068185;28;9698;-78
2023/04/17 11:04:33;;;;;;;;;8.80;7.80;;;;;14.66;54.42;98882.06;5068160;28;8886;-82
2023/04/17 11:07:06;;;;;;;;;8.60;8.20;;;;;14.59;54.96;98870.06;5051763;28;8957;-80
2023/04/17 11:09:35;;;;;;;;;8.80;8.80;;;;;14.42;55.49;98884.06;5050590;28;8863;-82
2023/04/17 11:12:05;;;;;;;;;10.20;10.20;;;;;14.31;55.98;98871.34;5088286;28;8858;-81
2023/04/17 11:14:35;;;;;;;;;10.00;10.00;;;;;14.26;57.09;98873.34;5092255;28;8866;-80
2023/04/17 11:17:08;;;;;;;;;16.60;13.60;;;;;14.34;56.88;98865.94;5104927;28;8862;-80
2023/04/17 11:19:39;;;;;;;;;13.80;11.60;;;;;14.55;56.98;98866.69;5095069;28;8883;-80
2023/04/17 11:22:10;;;;;;;;;13.20;12.00;;;;;14.37;56.95;98867.56;5091612;28;8935;-83
2023/04/17 11:24:39;;;;;;;;;13.20;12.80;;;;;14.51;56.27;98866.91;5091451;28;8848;-81
2023/04/17 11:27:08;;;;;;;;;11.60;11.60;;;;;14.56;55.54;98864.91;5102191;28;8850;-81
2023/04/17 11:29:37;;;;;;;;;15.20;13.80;;;;;14.45;55.74;98871.56;5071436;28;8896;-80
2023/04/17 11:32:11;;;;;;;;;14.00;12.20;;;;;14.56;55.93;98870.19;5055027;28;8817;-79
2023/04/17 11:34:41;;;;;;;;;11.80;11.40;;;;;14.39;55.84;98863.06;5090376;28;8842;-81
2023/04/17 11:37:14;;;;;;;;;15.60;14.80;;;;;14.46;55.57;98859.19;5072176;28;8946;-81
2023/04/17 11:39:43;;;;;;;;;12.00;11.00;;;;;14.55;55.38;98868.50;5071622;28;8881;-80
2023/04/17 11:42:12;;;;;;;;;14.40;13.80;;;;;14.62;55.57;98862.81;5078014;28;8919;-80
2023/04/17 11:44:43;;;;;;;;;15.40;13.60;;;;;14.85;54.63;98861.72;5092199;28;9684;-80